createdAt,value
2022-11-27T00:01:31.444Z,4.45
2022-11-27T00:03:58.204Z,4.20
2022-11-27T00:06:26.937Z,5.15
2022-11-27T00:08:56.434Z,4.15
2022-11-27T00:11:24.812Z,4.38
2022-11-27T00:13:52.169Z,4.72
2022-11-27T00:16:21.295Z,4.25
2022-11-27T00:18:48.988Z,4.22
2022-11-27T00:21:17.967Z,4.32
2022-11-27T00:23:45.427Z,3.90
2022-11-27T00:26:12.165Z,4.82
2022-11-27T00:28:38.919Z,4.22
2022-11-27T00:31:08.466Z,4.15
2022-11-27T00:33:35.287Z,4.10
2022-11-27T00:36:06.099Z,4.15
2022-11-27T00:38:38.318Z,3.88
2022-11-27T00:41:10.285Z,4.05
2022-11-27T00:43:44.037Z,3.90
2022-11-27T00:46:13.409Z,4.70
2022-11-27T00:48:40.238Z,4.65
2022-11-27T00:51:12.082Z,6.32
2022-11-27T00:53:38.681Z,12.93
2022-11-27T00:56:05.607Z,10.00
2022-11-27T00:58:32.328Z,8.18
2022-11-27T01:01:00.970Z,8.60
2022-11-27T01:03:28.694Z,6.63
2022-11-27T01:05:55.359Z,7.38
2022-11-27T01:08:24.533Z,8.55
2022-11-27T01:10:54.995Z,7.85
2022-11-27T01:13:32.081Z,7.20
2022-11-27T01:16:09.545Z,8.57
2022-11-27T01:18:38.617Z,7.05
2022-11-27T01:21:06.212Z,7.60
2022-11-27T01:23:33.087Z,7.07
2022-11-27T01:26:04.573Z,7.10
2022-11-27T01:28:31.658Z,6.75
2022-11-27T01:30:58.743Z,6.25
2022-11-27T01:33:25.459Z,7.35
2022-11-27T01:35:56.967Z,6.18
2022-11-27T01:38:24.259Z,5.78
2022-11-27T01:41:01.854Z,6.15
2022-11-27T01:43:49.834Z,6.53
2022-11-27T01:46:38.966Z,6.28
2022-11-27T01:49:22.114Z,6.60
2022-11-27T01:51:55.092Z,6.95
2022-11-27T01:54:26.782Z,6.63
2022-11-27T01:56:57.427Z,7.07
2022-11-27T01:59:24.203Z,7.65
2022-11-27T02:01:50.981Z,6.47
2022-11-27T02:04:18.862Z,6.47
2022-11-27T02:06:45.903Z,7.10
2022-11-27T02:09:12.570Z,7.22
2022-11-27T02:12:17.770Z,6.70
2022-11-27T02:14:50.243Z,5.95
2022-11-27T02:17:47.544Z,6.30
2022-11-27T02:20:53.869Z,6.10
2022-11-27T02:23:42.011Z,6.00
2022-11-27T02:26:41.309Z,6.30
2022-11-27T02:29:23.107Z,6.35
2022-11-27T02:32:08.350Z,6.18
2022-11-27T02:35:01.300Z,6.43
2022-11-27T02:37:32.546Z,6.43
2022-11-27T02:40:13.077Z,6.53
2022-11-27T02:42:48.532Z,7.88
2022-11-27T02:45:19.026Z,7.25
2022-11-27T02:47:47.173Z,10.55
2022-11-27T02:50:20.886Z,11.95
2022-11-27T02:52:49.390Z,10.07
2022-11-27T02:55:19.081Z,9.65
2022-11-27T02:57:46.562Z,9.85
2022-11-27T03:00:14.057Z,9.43
2022-11-27T03:02:46.268Z,10.05
2022-11-27T03:05:17.127Z,8.48
2022-11-27T03:07:53.187Z,8.63
2022-11-27T03:10:24.762Z,9.00
2022-11-27T03:12:51.634Z,8.68
2022-11-27T03:15:19.617Z,8.80
2022-11-27T03:18:01.584Z,8.88
2022-11-27T03:20:31.575Z,8.60
2022-11-27T03:22:58.534Z,8.85
2022-11-27T03:25:25.327Z,7.93
2022-11-27T03:28:03.871Z,7.40
2022-11-27T03:30:30.633Z,7.05
2022-11-27T03:32:57.535Z,7.00
2022-11-27T03:35:26.575Z,7.57
2022-11-27T03:37:53.946Z,6.68
2022-11-27T03:40:25.342Z,7.07
2022-11-27T03:42:54.953Z,7.80
2022-11-27T03:45:34.639Z,7.03
2022-11-27T03:48:33.333Z,6.93
2022-11-27T03:51:05.964Z,6.55
2022-11-27T03:53:57.781Z,6.13
2022-11-27T03:56:42.064Z,5.32
2022-11-27T03:59:25.672Z,5.70
2022-11-27T04:01:52.314Z,6.43
2022-11-27T04:04:19.064Z,6.25
2022-11-27T04:06:45.942Z,5.72
2022-11-27T04:09:12.749Z,6.40
2022-11-27T04:11:39.359Z,6.32
2022-11-27T04:14:06.095Z,6.10
2022-11-27T04:16:32.831Z,5.70
2022-11-27T04:18:59.574Z,6.55
2022-11-27T04:21:26.291Z,5.90
2022-11-27T04:23:52.972Z,6.00
2022-11-27T04:26:20.252Z,6.68
2022-11-27T04:28:46.911Z,6.47
2022-11-27T04:31:13.589Z,6.47
2022-11-27T04:33:40.319Z,5.82
2022-11-27T04:36:07.041Z,6.15
2022-11-27T04:38:33.678Z,6.35
2022-11-27T04:41:00.855Z,6.57
2022-11-27T04:43:27.496Z,6.32
2022-11-27T04:45:54.127Z,6.43
2022-11-27T04:48:20.812Z,6.53
2022-11-27T04:50:47.494Z,6.88
2022-11-27T04:53:14.085Z,6.22
2022-11-27T04:55:40.810Z,6.57
2022-11-27T04:58:07.398Z,6.60
2022-11-27T05:00:34.130Z,6.22
2022-11-27T05:03:00.903Z,6.00
2022-11-27T05:05:27.650Z,5.85
2022-11-27T05:07:54.337Z,6.85
2022-11-27T05:10:21.005Z,6.35
2022-11-27T05:12:47.669Z,6.32
2022-11-27T05:15:15.420Z,6.45
2022-11-27T05:17:42.078Z,5.65
2022-11-27T05:20:09.010Z,6.05
2022-11-27T05:22:35.648Z,6.28
2022-11-27T05:25:02.281Z,5.82
2022-11-27T05:27:28.895Z,5.47
2022-11-27T05:29:55.898Z,6.22
2022-11-27T05:32:22.587Z,5.40
2022-11-27T05:34:49.740Z,5.82
2022-11-27T05:37:19.718Z,6.78
2022-11-27T05:39:46.869Z,5.97
2022-11-27T05:42:13.541Z,5.60
2022-11-27T05:44:40.505Z,6.50
2022-11-27T05:47:07.529Z,5.50
2022-11-27T05:49:34.328Z,5.57
2022-11-27T05:52:00.946Z,5.43
2022-11-27T05:54:27.744Z,6.78
2022-11-27T05:56:54.374Z,5.78
2022-11-27T05:59:21.425Z,5.50
2022-11-27T06:01:49.648Z,6.30
2022-11-27T06:04:16.630Z,5.95
2022-11-27T06:06:43.324Z,5.82
2022-11-27T06:09:13.183Z,6.03
2022-11-27T06:11:41.130Z,5.53
2022-11-27T06:14:09.137Z,5.00
2022-11-27T06:16:36.022Z,5.68
2022-11-27T06:19:03.221Z,5.60
2022-11-27T06:21:29.923Z,5.28
2022-11-27T06:23:56.934Z,5.65
2022-11-27T06:26:26.600Z,5.40
2022-11-27T06:28:54.564Z,6.22
2022-11-27T06:31:29.397Z,6.25
2022-11-27T06:33:56.414Z,6.07
2022-11-27T06:36:25.712Z,5.53
2022-11-27T06:38:52.347Z,6.25
2022-11-27T06:41:20.983Z,5.97
2022-11-27T06:43:48.138Z,6.82
2022-11-27T06:46:18.052Z,6.00
2022-11-27T06:48:45.973Z,6.55
2022-11-27T06:51:16.290Z,5.53
2022-11-27T06:53:43.687Z,5.32
2022-11-27T06:56:15.529Z,6.70
2022-11-27T06:58:42.243Z,5.90
2022-11-27T07:01:12.411Z,5.57
2022-11-27T07:03:39.522Z,5.80
2022-11-27T07:06:08.270Z,5.53
2022-11-27T07:08:35.901Z,5.63
2022-11-27T07:11:07.164Z,5.82
2022-11-27T07:13:34.173Z,5.38
2022-11-27T07:16:05.708Z,6.30
2022-11-27T07:18:36.787Z,5.82
2022-11-27T07:21:03.545Z,5.68
2022-11-27T07:23:30.372Z,5.55
2022-11-27T07:25:57.291Z,6.22
2022-11-27T07:28:24.650Z,5.35
2022-11-27T07:31:00.643Z,5.97
2022-11-27T07:33:27.479Z,5.93
2022-11-27T07:36:03.856Z,5.90
2022-11-27T07:38:33.823Z,6.10
2022-11-27T07:41:04.190Z,6.55
2022-11-27T07:43:32.576Z,6.70
2022-11-27T07:45:59.684Z,5.88
2022-11-27T07:48:26.384Z,5.85
2022-11-27T07:50:53.132Z,6.90
2022-11-27T07:53:19.848Z,7.25
2022-11-27T07:55:46.658Z,5.78
2022-11-27T07:58:13.345Z,6.72
2022-11-27T08:00:40.144Z,6.68
2022-11-27T08:03:06.865Z,6.55
2022-11-27T08:05:35.588Z,6.43
2022-11-27T08:08:04.358Z,7.38
2022-11-27T08:10:32.135Z,6.25
2022-11-27T08:12:59.182Z,7.43
2022-11-27T08:15:25.854Z,6.47
2022-11-27T08:17:52.503Z,6.57
2022-11-27T08:20:19.912Z,7.32
2022-11-27T08:22:46.918Z,7.03
2022-11-27T08:25:14.058Z,7.82
2022-11-27T08:27:40.670Z,6.47
2022-11-27T08:30:08.031Z,7.38
2022-11-27T08:32:35.868Z,8.77
2022-11-27T08:35:02.910Z,6.78
2022-11-27T08:37:29.502Z,6.88
2022-11-27T08:39:56.190Z,7.97
2022-11-27T08:42:23.206Z,7.20
2022-11-27T08:44:49.833Z,7.65
2022-11-27T08:47:16.916Z,7.55
2022-11-27T08:49:46.281Z,9.38
2022-11-27T08:52:13.127Z,10.10
2022-11-27T08:54:40.018Z,8.35
2022-11-27T08:57:06.807Z,8.38
2022-11-27T08:59:33.476Z,7.20
2022-11-27T09:02:00.132Z,7.03
2022-11-27T09:04:26.896Z,6.50
2022-11-27T09:06:58.457Z,6.80
2022-11-27T09:09:25.654Z,5.45
2022-11-27T09:11:54.442Z,5.90
2022-11-27T09:14:21.126Z,5.40
2022-11-27T09:16:47.821Z,6.53
2022-11-27T09:19:14.706Z,6.15
2022-11-27T09:21:41.389Z,6.03
2022-11-27T09:24:09.873Z,4.43
2022-11-27T09:26:36.591Z,4.43
2022-11-27T09:29:04.019Z,4.20
2022-11-27T09:31:30.691Z,5.28
2022-11-27T09:33:58.403Z,5.78
2022-11-27T09:36:26.511Z,5.88
2022-11-27T09:38:53.748Z,6.00
2022-11-27T09:41:29.415Z,5.57
2022-11-27T09:44:06.725Z,6.07
2022-11-27T09:46:37.029Z,3.75
2022-11-27T09:49:08.003Z,3.45
2022-11-27T09:51:39.109Z,3.92
2022-11-27T09:54:20.942Z,3.50
2022-11-27T09:56:50.377Z,3.85
2022-11-27T09:59:19.358Z,4.40
2022-11-27T10:01:50.858Z,3.60
2022-11-27T10:04:19.681Z,3.38
2022-11-27T10:06:49.271Z,3.72
2022-11-27T10:09:38.733Z,3.33
2022-11-27T10:12:31.049Z,3.58
2022-11-27T10:15:37.036Z,3.03
2022-11-27T10:18:11.724Z,2.90
2022-11-27T10:20:46.823Z,3.25
2022-11-27T10:23:41.906Z,3.28
2022-11-27T10:26:20.580Z,3.10
2022-11-27T10:28:53.212Z,2.70
2022-11-27T10:31:33.464Z,3.15
2022-11-27T10:34:03.030Z,3.55
2022-11-27T10:36:43.173Z,3.40
2022-11-27T10:39:34.765Z,3.38
2022-11-27T10:42:13.758Z,3.10
2022-11-27T10:44:51.118Z,2.80
2022-11-27T10:47:20.087Z,3.20
2022-11-27T10:49:47.913Z,3.03
2022-11-27T10:52:18.075Z,2.55
2022-11-27T10:54:50.190Z,3.13
2022-11-27T10:57:34.135Z,2.58
2022-11-27T11:00:20.529Z,2.72
2022-11-27T11:02:47.348Z,2.95
2022-11-27T11:05:41.033Z,3.47
2022-11-27T11:08:18.260Z,3.08
2022-11-27T11:10:54.691Z,3.05
2022-11-27T11:13:28.891Z,2.50
2022-11-27T11:16:15.054Z,3.08
2022-11-27T11:18:50.096Z,3.08
2022-11-27T11:21:30.061Z,3.13
2022-11-27T11:24:01.334Z,3.15
2022-11-27T11:26:49.709Z,3.30
2022-11-27T11:29:35.267Z,3.53
2022-11-27T11:32:14.652Z,3.22
2022-11-27T11:34:43.647Z,3.45
2022-11-27T11:37:25.451Z,2.83
2022-11-27T11:40:04.012Z,2.22
2022-11-27T11:42:33.037Z,2.13
2022-11-27T11:45:17.226Z,3.25
2022-11-27T11:47:49.445Z,2.35
2022-11-27T11:50:27.688Z,2.85
2022-11-27T11:53:17.385Z,2.30
2022-11-27T11:56:13.160Z,2.65
2022-11-27T11:59:17.486Z,2.60
2022-11-27T12:02:18.367Z,2.58
2022-11-27T12:04:45.603Z,2.75
2022-11-27T12:07:31.220Z,2.92
2022-11-27T12:10:05.088Z,2.40
2022-11-27T12:12:52.442Z,2.28
2022-11-27T12:15:27.823Z,2.58
2022-11-27T12:18:07.087Z,2.90
2022-11-27T12:20:52.663Z,3.22
2022-11-27T12:23:49.515Z,2.60
2022-11-27T12:26:46.614Z,2.85
2022-11-27T12:29:42.210Z,2.60
2022-11-27T12:32:37.193Z,2.70
2022-11-27T12:35:32.303Z,3.80
2022-11-27T12:38:17.212Z,2.75
2022-11-27T12:41:02.013Z,2.92
2022-11-27T12:43:31.890Z,2.97
2022-11-27T12:46:20.218Z,3.88
2022-11-27T12:49:03.362Z,4.55
2022-11-27T12:51:55.480Z,4.55
2022-11-27T12:54:28.142Z,4.15
2022-11-27T12:56:57.891Z,4.00
2022-11-27T12:59:33.782Z,3.83
2022-11-27T13:02:09.712Z,4.78
2022-11-27T13:04:44.617Z,3.70
2022-11-27T13:07:17.451Z,3.50
2022-11-27T13:10:02.824Z,2.63
2022-11-27T13:13:07.180Z,2.97
2022-11-27T13:15:45.913Z,3.08
2022-11-27T13:18:30.300Z,2.78
2022-11-27T13:20:59.876Z,3.08
2022-11-27T13:23:30.897Z,3.45
2022-11-27T13:25:58.991Z,2.60
2022-11-27T13:28:36.378Z,2.40
2022-11-27T13:31:04.375Z,2.30
2022-11-27T13:33:42.853Z,2.33
2022-11-27T13:36:20.407Z,2.10
2022-11-27T13:38:56.234Z,2.20
2022-11-27T13:41:33.109Z,2.38
2022-11-27T13:43:59.973Z,2.20
2022-11-27T13:46:29.038Z,2.00
2022-11-27T13:49:00.597Z,2.05
2022-11-27T13:51:32.687Z,2.58
2022-11-27T13:54:11.320Z,2.53
2022-11-27T13:56:38.223Z,3.13
2022-11-27T13:59:15.051Z,2.70
2022-11-27T14:02:03.311Z,3.10
2022-11-27T14:04:32.267Z,3.85
2022-11-27T14:07:11.281Z,2.90
2022-11-27T14:09:47.106Z,3.00
2022-11-27T14:12:25.189Z,2.45
2022-11-27T14:15:00.976Z,2.47
2022-11-27T14:17:40.930Z,2.45
2022-11-27T14:20:11.558Z,2.33
2022-11-27T14:23:09.907Z,2.35
2022-11-27T14:25:36.288Z,2.75
2022-11-27T14:28:25.999Z,2.50
2022-11-27T14:30:56.829Z,2.53
2022-11-27T14:33:25.995Z,2.72
2022-11-27T14:36:00.349Z,2.63
2022-11-27T14:38:28.864Z,2.60
2022-11-27T14:41:08.773Z,2.55
2022-11-27T14:43:35.402Z,2.78
2022-11-27T14:46:02.940Z,3.35
2022-11-27T14:48:55.280Z,2.92
2022-11-27T14:51:24.423Z,2.97
2022-11-27T14:53:58.410Z,3.20
2022-11-27T14:56:33.291Z,2.40
2022-11-27T14:59:00.713Z,2.65
2022-11-27T15:01:35.625Z,2.67
2022-11-27T15:04:23.479Z,3.15
2022-11-27T15:06:50.652Z,3.42
2022-11-27T15:09:31.695Z,3.80
2022-11-27T15:12:21.207Z,3.40
2022-11-27T15:15:01.433Z,3.28
2022-11-27T15:17:30.807Z,3.28
2022-11-27T15:19:58.415Z,3.22
2022-11-27T15:22:33.406Z,3.97
2022-11-27T15:25:05.473Z,3.75
2022-11-27T15:27:45.347Z,3.67
2022-11-27T15:30:17.577Z,2.95
2022-11-27T15:32:56.759Z,2.53
2022-11-27T15:35:28.993Z,2.88
2022-11-27T15:38:05.485Z,3.05
2022-11-27T15:40:36.226Z,2.95
2022-11-27T15:43:06.566Z,3.60
2022-11-27T15:45:33.947Z,4.00
2022-11-27T15:48:01.616Z,4.70
2022-11-27T15:50:31.792Z,3.80
2022-11-27T15:53:00.851Z,4.25
2022-11-27T15:55:27.582Z,4.38
2022-11-27T15:57:54.309Z,4.30
2022-11-27T16:00:22.154Z,3.95
2022-11-27T16:02:48.928Z,3.65
2022-11-27T16:05:15.754Z,3.90
2022-11-27T16:07:42.474Z,4.35
2022-11-27T16:10:09.904Z,4.00
2022-11-27T16:12:38.873Z,4.60
2022-11-27T16:15:07.440Z,5.13
2022-11-27T16:17:34.271Z,5.32
2022-11-27T16:20:00.950Z,4.85
2022-11-27T16:22:27.722Z,5.68
2022-11-27T16:24:54.425Z,5.82
2022-11-27T16:27:21.549Z,6.70
2022-11-27T16:29:48.212Z,6.70
2022-11-27T16:32:16.708Z,6.22
2022-11-27T16:34:45.142Z,5.78
2022-11-27T16:37:18.084Z,5.13
2022-11-27T16:39:45.486Z,4.97
2022-11-27T16:42:12.589Z,4.18
2022-11-27T16:44:39.652Z,4.28
2022-11-27T16:47:06.714Z,3.88
2022-11-27T16:49:35.528Z,3.90
2022-11-27T16:52:02.565Z,3.75
2022-11-27T16:54:29.512Z,3.78
2022-11-27T16:56:57.008Z,3.22
2022-11-27T16:59:23.870Z,3.83
2022-11-27T17:01:50.605Z,3.60
2022-11-27T17:04:30.071Z,3.80
2022-11-27T17:06:56.874Z,3.83
2022-11-27T17:09:26.014Z,3.58
2022-11-27T17:11:52.770Z,3.22
2022-11-27T17:14:20.499Z,3.70
2022-11-27T17:16:48.945Z,3.10
2022-11-27T17:19:16.492Z,3.67
2022-11-27T17:21:45.226Z,4.57
2022-11-27T17:24:15.275Z,4.05
2022-11-27T17:26:44.399Z,4.40
2022-11-27T17:29:16.476Z,4.00
2022-11-27T17:31:43.508Z,3.28
2022-11-27T17:34:14.608Z,3.00
2022-11-27T17:36:43.077Z,3.25
2022-11-27T17:39:12.778Z,3.50
2022-11-27T17:41:40.692Z,3.38
2022-11-27T17:44:08.184Z,4.07
2022-11-27T17:46:38.145Z,4.07
2022-11-27T17:49:08.266Z,4.63
2022-11-27T17:51:37.660Z,3.90
2022-11-27T17:54:16.591Z,4.63
2022-11-27T17:56:51.418Z,3.58
2022-11-27T17:59:20.504Z,4.70
2022-11-27T18:01:50.194Z,3.95
2022-11-27T18:04:17.006Z,4.22
2022-11-27T18:06:45.581Z,4.43
2022-11-27T18:09:12.836Z,4.32
2022-11-27T18:11:40.722Z,3.53
2022-11-27T18:14:12.962Z,3.85
2022-11-27T18:16:40.627Z,3.97
2022-11-27T18:19:11.348Z,3.88
2022-11-27T18:21:39.215Z,4.47
2022-11-27T18:24:24.431Z,3.90
2022-11-27T18:27:08.284Z,3.53
2022-11-27T18:29:37.309Z,3.75
2022-11-27T18:32:05.285Z,3.67
2022-11-27T18:34:32.497Z,3.78
2022-11-27T18:36:59.743Z,4.47
2022-11-27T18:39:27.157Z,3.63
2022-11-27T18:41:53.913Z,3.42
2022-11-27T18:44:24.606Z,3.55
2022-11-27T18:46:51.383Z,4.07
2022-11-27T18:49:23.497Z,3.90
2022-11-27T18:51:53.014Z,3.45
2022-11-27T18:54:21.879Z,3.53
2022-11-27T18:56:48.911Z,3.92
2022-11-27T18:59:15.589Z,3.80
2022-11-27T19:01:42.970Z,4.00
2022-11-27T19:04:11.466Z,4.03
2022-11-27T19:06:39.194Z,5.82
2022-11-27T19:09:08.487Z,4.63
2022-11-27T19:11:35.369Z,4.53
2022-11-27T19:14:03.641Z,4.28
2022-11-27T19:16:36.301Z,4.20
2022-11-27T19:19:05.055Z,4.00
2022-11-27T19:21:33.426Z,4.47
2022-11-27T19:24:03.363Z,4.55
2022-11-27T19:26:32.749Z,4.82
2022-11-27T19:29:03.908Z,4.50
2022-11-27T19:31:33.496Z,4.75
2022-11-27T19:34:03.939Z,4.70
2022-11-27T19:36:32.067Z,4.85
2022-11-27T19:39:13.994Z,4.63
2022-11-27T19:41:43.771Z,4.65
2022-11-27T19:44:12.775Z,4.57
2022-11-27T19:46:40.325Z,4.47
2022-11-27T19:49:12.536Z,4.13
2022-11-27T19:51:44.292Z,4.15
2022-11-27T19:54:14.107Z,4.15
2022-11-27T19:56:43.722Z,4.22
2022-11-27T19:59:12.345Z,4.75
2022-11-27T20:01:41.430Z,4.15
2022-11-27T20:04:11.007Z,4.60
2022-11-27T20:06:38.822Z,4.70
2022-11-27T20:09:06.786Z,4.45
2022-11-27T20:11:35.795Z,4.15
2022-11-27T20:14:05.435Z,4.03
2022-11-27T20:16:33.293Z,4.40
2022-11-27T20:19:05.488Z,4.40
2022-11-27T20:21:34.243Z,4.10
2022-11-27T20:24:02.816Z,4.30
2022-11-27T20:26:30.594Z,4.50
2022-11-27T20:28:58.901Z,4.57
2022-11-27T20:31:33.236Z,4.65
2022-11-27T20:34:03.129Z,4.57
2022-11-27T20:36:35.692Z,4.63
2022-11-27T20:39:03.480Z,4.70
2022-11-27T20:41:31.214Z,3.97
2022-11-27T20:44:01.555Z,4.30
2022-11-27T20:46:30.675Z,4.68
2022-11-27T20:48:58.770Z,3.67
2022-11-27T20:51:30.887Z,4.47
2022-11-27T20:53:58.797Z,3.80
2022-11-27T20:56:26.671Z,3.97
2022-11-27T20:58:56.376Z,4.00
2022-11-27T21:01:24.798Z,4.38
2022-11-27T21:03:55.890Z,4.10
2022-11-27T21:06:29.473Z,4.85
2022-11-27T21:08:56.941Z,4.13
2022-11-27T21:11:31.356Z,5.40
2022-11-27T21:14:02.940Z,6.40
2022-11-27T21:16:32.720Z,6.40
2022-11-27T21:19:02.924Z,5.80
2022-11-27T21:21:29.562Z,5.90
2022-11-27T21:24:01.778Z,5.38
2022-11-27T21:26:29.726Z,5.88
2022-11-27T21:29:01.602Z,5.72
2022-11-27T21:31:37.301Z,5.03
2022-11-27T21:34:07.162Z,5.10
2022-11-27T21:36:36.020Z,5.60
2022-11-27T21:39:06.262Z,4.65
2022-11-27T21:41:33.099Z,5.13
2022-11-27T21:44:01.628Z,5.30
2022-11-27T21:46:29.159Z,5.25
2022-11-27T21:48:59.303Z,5.55
2022-11-27T21:51:27.378Z,4.57
2022-11-27T21:53:56.101Z,4.40
2022-11-27T21:56:25.002Z,4.50
2022-11-27T21:58:53.072Z,4.30
2022-11-27T22:01:23.116Z,4.35
2022-11-27T22:03:55.384Z,4.68
2022-11-27T22:06:24.814Z,5.00
2022-11-27T22:08:52.069Z,4.80
2022-11-27T22:11:21.572Z,4.68
2022-11-27T22:13:49.138Z,4.65
2022-11-27T22:16:21.610Z,5.07
2022-11-27T22:18:49.118Z,4.95
2022-11-27T22:21:16.605Z,4.10
2022-11-27T22:23:43.454Z,5.10
2022-11-27T22:26:12.613Z,5.28
2022-11-27T22:28:39.394Z,4.82
2022-11-27T22:31:15.186Z,4.95
2022-11-27T22:33:42.911Z,4.40
2022-11-27T22:36:18.651Z,4.93
2022-11-27T22:38:48.028Z,4.38
2022-11-27T22:41:15.459Z,4.47
2022-11-27T22:43:42.779Z,4.60
2022-11-27T22:46:11.033Z,4.25
2022-11-27T22:48:37.961Z,4.47
2022-11-27T22:51:05.196Z,3.72
2022-11-27T22:53:32.206Z,3.75
2022-11-27T22:56:11.925Z,4.13
2022-11-27T22:58:42.255Z,3.28
2022-11-27T23:01:13.140Z,3.53
2022-11-27T23:03:40.330Z,3.53
2022-11-27T23:06:12.897Z,3.78
2022-11-27T23:08:40.856Z,3.67
2022-11-27T23:11:11.195Z,3.53
2022-11-27T23:13:37.862Z,3.55
2022-11-27T23:16:06.609Z,3.30
2022-11-27T23:18:34.143Z,3.65
2022-11-27T23:21:00.702Z,3.53
2022-11-27T23:23:27.343Z,3.15
2022-11-27T23:25:53.934Z,3.28
2022-11-27T23:28:20.909Z,3.50
2022-11-27T23:30:50.328Z,3.22
2022-11-27T23:33:26.545Z,3.28
2022-11-27T23:36:01.261Z,3.60
2022-11-27T23:38:28.898Z,3.13
2022-11-27T23:40:57.045Z,3.30
2022-11-27T23:43:25.230Z,3.70
2022-11-27T23:45:51.922Z,3.90
2022-11-27T23:48:18.591Z,3.70
2022-11-27T23:50:45.246Z,3.58
2022-11-27T23:53:12.441Z,3.58
2022-11-27T23:55:39.033Z,3.60
2022-11-27T23:58:06.974Z,3.58
